createdAt,value
2023-01-07T00:00:25.348Z,5.55
2023-01-07T00:02:30.718Z,5.18
2023-01-07T00:04:35.686Z,8.05
2023-01-07T00:06:43.152Z,5.22
2023-01-07T00:08:50.882Z,5.75
2023-01-07T00:10:55.810Z,5.07
2023-01-07T00:13:00.670Z,7.10
2023-01-07T00:15:10.063Z,5.10
2023-01-07T00:17:14.929Z,4.78
2023-01-07T00:19:21.750Z,4.65
2023-01-07T00:21:28.735Z,4.78
2023-01-07T00:23:35.061Z,5.80
2023-01-07T00:25:39.938Z,7.78
2023-01-07T00:27:44.852Z,4.80
2023-01-07T00:29:49.734Z,5.47
2023-01-07T00:31:57.203Z,5.55
2023-01-07T00:34:11.686Z,3.58
2023-01-07T00:36:16.645Z,9.73
2023-01-07T00:38:21.517Z,5.63
2023-01-07T00:40:26.529Z,4.72
2023-01-07T00:42:44.006Z,5.72
2023-01-07T00:46:56.579Z,4.20
2023-01-07T00:49:02.130Z,4.53
2023-01-07T00:51:07.152Z,3.95
2023-01-07T00:53:13.883Z,2.90
2023-01-07T00:55:19.321Z,5.28
2023-01-07T00:57:24.389Z,4.90
2023-01-07T00:59:29.300Z,3.35
2023-01-07T01:01:34.354Z,4.30
2023-01-07T01:03:43.758Z,4.65
2023-01-07T01:05:49.053Z,3.53
2023-01-07T01:07:54.481Z,2.65
2023-01-07T01:09:59.953Z,3.90
2023-01-07T01:12:05.577Z,4.75
2023-01-07T01:14:10.491Z,3.58
2023-01-07T01:16:19.120Z,4.10
2023-01-07T01:18:24.051Z,7.80
2023-01-07T01:20:32.574Z,5.30
2023-01-07T01:22:37.975Z,3.88
2023-01-07T01:24:43.170Z,3.22
2023-01-07T01:26:48.036Z,2.95
2023-01-07T01:28:53.286Z,3.03
2023-01-07T01:31:01.962Z,3.90
2023-01-07T01:33:15.839Z,2.97
2023-01-07T01:35:21.113Z,5.60
2023-01-07T01:37:29.113Z,3.47
2023-01-07T01:39:35.889Z,2.13
2023-01-07T01:41:41.339Z,5.22
2023-01-07T01:43:47.801Z,2.17
2023-01-07T01:45:53.237Z,3.20
2023-01-07T01:48:06.285Z,5.53
2023-01-07T01:50:18.491Z,2.47
2023-01-07T01:52:32.265Z,2.42
2023-01-07T01:54:37.391Z,3.67
2023-01-07T01:56:51.301Z,3.15
2023-01-07T01:59:02.568Z,2.28
2023-01-07T02:01:08.715Z,2.75
2023-01-07T02:03:19.196Z,2.72
2023-01-07T02:05:24.818Z,3.15
2023-01-07T02:07:32.308Z,4.63
2023-01-07T02:09:37.231Z,2.28
2023-01-07T02:11:58.670Z,2.50
2023-01-07T02:14:27.700Z,3.25
2023-01-07T02:16:41.518Z,2.95
2023-01-07T02:19:03.828Z,4.32
2023-01-07T02:21:33.117Z,4.40
2023-01-07T02:24:11.750Z,2.47
2023-01-07T02:26:52.177Z,4.03
2023-01-07T02:29:33.679Z,3.30
2023-01-07T02:32:39.269Z,2.30
2023-01-07T02:34:53.317Z,2.85
2023-01-07T02:37:08.596Z,3.55
2023-01-07T02:39:30.647Z,2.50
2023-01-07T02:41:50.293Z,2.72
2023-01-07T02:44:05.311Z,2.03
2023-01-07T02:46:22.608Z,3.55
2023-01-07T02:48:30.921Z,2.55
2023-01-07T02:50:35.898Z,3.90
2023-01-07T02:52:41.597Z,3.15
2023-01-07T02:54:48.406Z,3.53
2023-01-07T02:57:21.234Z,2.65
2023-01-07T03:00:04.266Z,2.25
2023-01-07T03:02:40.749Z,2.05
2023-01-07T03:05:35.556Z,3.45
2023-01-07T03:07:57.914Z,2.72
2023-01-07T03:10:08.896Z,3.72
2023-01-07T03:12:23.491Z,2.95
2023-01-07T03:14:39.711Z,1.95
2023-01-07T03:16:51.900Z,1.95
2023-01-07T03:19:06.161Z,2.60
2023-01-07T03:21:19.433Z,2.53
2023-01-07T03:23:29.289Z,2.95
2023-01-07T03:25:38.128Z,1.75
2023-01-07T03:27:47.861Z,2.70
2023-01-07T03:29:54.555Z,2.92
2023-01-07T03:32:06.145Z,4.80
2023-01-07T03:34:15.463Z,2.15
2023-01-07T03:36:28.702Z,2.13
2023-01-07T03:38:35.068Z,2.90
2023-01-07T03:40:40.851Z,4.47
2023-01-07T03:42:49.063Z,4.13
2023-01-07T03:45:01.454Z,2.78
2023-01-07T03:47:09.986Z,2.00
2023-01-07T03:49:15.287Z,3.22
2023-01-07T03:51:22.854Z,2.30
2023-01-07T03:53:27.802Z,1.60
2023-01-07T03:55:33.791Z,1.98
2023-01-07T03:57:38.833Z,2.63
2023-01-07T03:59:44.121Z,2.30
2023-01-07T04:01:49.799Z,4.88
2023-01-07T04:03:55.213Z,3.00
2023-01-07T04:06:00.899Z,2.63
2023-01-07T04:08:09.261Z,3.15
2023-01-07T04:10:16.931Z,3.20
2023-01-07T04:12:22.030Z,2.15
2023-01-07T04:14:27.966Z,2.20
2023-01-07T04:16:33.078Z,2.35
2023-01-07T04:18:38.754Z,3.38
2023-01-07T04:20:48.408Z,1.80
2023-01-07T04:22:54.260Z,1.88
2023-01-07T04:25:01.960Z,3.55
2023-01-07T04:27:07.451Z,1.70
2023-01-07T04:29:13.935Z,2.88
2023-01-07T04:31:19.241Z,1.83
2023-01-07T04:33:24.565Z,1.67
2023-01-07T04:35:30.112Z,1.85
2023-01-07T04:37:36.294Z,1.77
2023-01-07T04:39:41.375Z,3.38
2023-01-07T04:41:49.040Z,1.98
2023-01-07T04:43:54.216Z,1.73
2023-01-07T04:45:59.165Z,1.63
2023-01-07T04:48:04.282Z,2.03
2023-01-07T04:50:10.987Z,1.75
2023-01-07T04:52:16.672Z,2.35
2023-01-07T04:54:21.958Z,2.40
2023-01-07T04:56:27.836Z,1.35
2023-01-07T04:58:36.137Z,3.20
2023-01-07T05:00:41.643Z,2.20
2023-01-07T05:02:46.667Z,2.70
2023-01-07T05:04:51.687Z,1.48
2023-01-07T05:06:58.877Z,1.75
2023-01-07T05:09:05.338Z,2.42
2023-01-07T05:11:11.586Z,1.95
2023-01-07T05:13:22.655Z,1.45
2023-01-07T05:15:30.223Z,4.05
2023-01-07T05:17:35.265Z,2.53
2023-01-07T05:19:42.343Z,3.35
2023-01-07T05:23:56.297Z,1.67
2023-01-07T05:26:01.318Z,1.98
2023-01-07T05:28:08.696Z,2.50
2023-01-07T05:30:16.374Z,2.65
2023-01-07T05:32:25.331Z,2.92
2023-01-07T05:34:31.202Z,3.22
2023-01-07T05:36:36.753Z,2.95
2023-01-07T05:38:43.497Z,1.58
2023-01-07T05:40:51.566Z,2.65
2023-01-07T05:43:00.762Z,4.32
2023-01-07T05:45:08.162Z,3.22
2023-01-07T05:47:13.170Z,2.72
2023-01-07T05:49:21.202Z,5.05
2023-01-07T05:51:26.643Z,2.58
2023-01-07T05:53:31.704Z,2.55
2023-01-07T05:55:39.170Z,3.17
2023-01-07T05:57:44.157Z,2.53
2023-01-07T05:59:49.718Z,2.85
2023-01-07T06:01:55.310Z,3.58
2023-01-07T06:04:00.287Z,2.20
2023-01-07T06:06:09.661Z,3.72
2023-01-07T06:08:14.725Z,2.55
2023-01-07T06:10:20.453Z,2.65
2023-01-07T06:12:25.868Z,4.53
2023-01-07T06:14:30.911Z,3.72
2023-01-07T06:16:36.192Z,6.72
2023-01-07T06:18:41.793Z,3.45
2023-01-07T06:20:47.116Z,3.58
2023-01-07T06:22:54.920Z,4.75
2023-01-07T06:24:59.915Z,2.92
2023-01-07T06:27:05.198Z,3.30
2023-01-07T06:29:10.551Z,3.95
2023-01-07T06:31:15.583Z,2.22
2023-01-07T06:33:21.987Z,6.43
2023-01-07T06:35:26.956Z,2.75
2023-01-07T06:37:31.908Z,2.40
2023-01-07T06:39:39.944Z,2.50
2023-01-07T06:41:44.910Z,3.60
2023-01-07T06:43:50.228Z,3.58
2023-01-07T06:45:55.498Z,2.78
2023-01-07T06:48:00.869Z,2.97
2023-01-07T06:50:06.339Z,3.65
2023-01-07T06:52:11.366Z,4.85
2023-01-07T06:54:17.360Z,5.95
2023-01-07T06:56:25.087Z,7.13
2023-01-07T06:58:30.040Z,7.18
2023-01-07T07:00:35.864Z,6.78
2023-01-07T07:02:40.876Z,5.72
2023-01-07T07:04:46.674Z,3.47
2023-01-07T07:06:51.662Z,2.60
2023-01-07T07:08:56.612Z,3.25
2023-01-07T07:11:01.637Z,5.18
2023-01-07T07:13:09.185Z,3.70
2023-01-07T07:15:15.030Z,2.90
2023-01-07T07:17:20.006Z,1.80
2023-01-07T07:19:25.832Z,3.55
2023-01-07T07:21:31.109Z,4.47
2023-01-07T07:23:36.133Z,2.53
2023-01-07T07:25:41.150Z,3.10
2023-01-07T07:27:48.970Z,4.90
2023-01-07T07:29:56.776Z,3.63
2023-01-07T07:32:02.128Z,4.47
2023-01-07T07:34:07.196Z,3.03
2023-01-07T07:36:13.705Z,4.05
2023-01-07T07:38:19.643Z,4.97
2023-01-07T07:40:24.608Z,5.63
2023-01-07T07:42:29.647Z,4.75
2023-01-07T07:44:34.990Z,3.95
2023-01-07T07:46:42.625Z,6.30
2023-01-07T07:50:54.547Z,3.67
2023-01-07T07:52:59.743Z,3.80
2023-01-07T07:55:19.937Z,3.05
2023-01-07T07:57:31.825Z,3.28
2023-01-07T07:59:36.899Z,4.50
2023-01-07T08:01:44.909Z,5.32
2023-01-07T08:03:49.953Z,5.13
2023-01-07T08:05:55.951Z,5.03
2023-01-07T08:08:01.486Z,3.63
2023-01-07T08:10:08.269Z,5.80
2023-01-07T08:12:13.635Z,4.75
2023-01-07T08:14:18.630Z,4.78
2023-01-07T08:16:24.043Z,3.58
2023-01-07T08:18:32.005Z,3.03
2023-01-07T08:20:39.153Z,4.05
2023-01-07T08:22:44.167Z,4.47
2023-01-07T08:24:49.140Z,4.28
2023-01-07T08:26:55.779Z,3.80
2023-01-07T08:29:00.733Z,4.93
2023-01-07T08:31:06.557Z,2.90
2023-01-07T08:33:12.128Z,4.78
2023-01-07T08:35:19.909Z,4.10
2023-01-07T08:37:25.267Z,4.13
2023-01-07T08:39:30.728Z,4.82
2023-01-07T08:41:35.713Z,3.67
2023-01-07T08:43:41.885Z,3.45
2023-01-07T08:45:52.159Z,5.63
2023-01-07T08:47:58.179Z,5.15
2023-01-07T08:50:03.603Z,5.78
2023-01-07T08:52:11.291Z,5.53
2023-01-07T08:54:16.458Z,4.25
2023-01-07T08:56:22.896Z,8.18
2023-01-07T08:58:28.077Z,6.50
2023-01-07T09:00:34.481Z,6.47
2023-01-07T09:02:39.558Z,6.43
2023-01-07T09:04:44.601Z,6.18
2023-01-07T09:06:50.200Z,7.65
2023-01-07T09:08:57.759Z,5.60
2023-01-07T09:11:02.787Z,5.13
2023-01-07T09:13:08.025Z,7.38
2023-01-07T09:15:15.140Z,4.93
2023-01-07T09:17:20.110Z,7.55
2023-01-07T09:19:26.998Z,9.38
2023-01-07T09:21:31.956Z,6.25
2023-01-07T09:23:36.964Z,9.65
2023-01-07T09:25:44.520Z,10.35
2023-01-07T09:27:50.253Z,4.90
2023-01-07T09:29:58.661Z,6.70
2023-01-07T09:32:03.633Z,3.55
2023-01-07T09:34:08.700Z,3.70
2023-01-07T09:36:13.684Z,3.17
2023-01-07T09:38:21.858Z,4.80
2023-01-07T09:44:00.005Z,4.22
2023-01-07T09:45:56.017Z,5.20
2023-01-07T09:48:05.182Z,2.97
2023-01-07T09:50:25.270Z,4.18
2023-01-07T09:52:36.919Z,2.97
2023-01-07T09:54:43.048Z,5.18
2023-01-07T09:56:49.207Z,4.65
2023-01-07T09:58:59.650Z,2.45
2023-01-07T10:01:19.165Z,1.80
2023-01-07T10:03:39.742Z,2.00
2023-01-07T10:05:59.234Z,2.20
2023-01-07T10:08:30.753Z,1.95
2023-01-07T10:10:47.223Z,2.55
2023-01-07T10:13:06.408Z,3.45
2023-01-07T10:15:56.639Z,2.88
2023-01-07T10:18:23.450Z,1.45
2023-01-07T10:20:39.317Z,1.95
2023-01-07T10:22:53.472Z,0.98
2023-01-07T10:25:04.654Z,2.97
2023-01-07T10:27:15.952Z,2.88
2023-01-07T10:29:30.484Z,1.55
2023-01-07T10:31:39.094Z,1.45
2023-01-07T10:33:44.145Z,1.83
2023-01-07T10:35:54.767Z,1.98
2023-01-07T10:38:03.725Z,2.20
2023-01-07T10:40:30.766Z,1.20
2023-01-07T10:42:41.751Z,1.70
2023-01-07T10:45:41.639Z,2.05
2023-01-07T10:48:08.729Z,2.53
2023-01-07T10:50:47.861Z,2.33
2023-01-07T10:53:02.798Z,1.25
2023-01-07T10:55:43.633Z,4.03
2023-01-07T10:57:50.995Z,1.58
2023-01-07T11:00:02.428Z,1.02
2023-01-07T11:02:16.914Z,1.02
2023-01-07T11:04:24.581Z,5.35
2023-01-07T11:06:43.591Z,5.28
2023-01-07T11:08:50.136Z,2.10
2023-01-07T11:10:56.901Z,1.45
2023-01-07T11:15:19.556Z,3.30
2023-01-07T11:17:34.513Z,2.83
2023-01-07T11:19:51.620Z,1.70
2023-01-07T11:21:56.526Z,1.08
2023-01-07T11:24:01.917Z,1.65
2023-01-07T11:26:21.069Z,2.88
2023-01-07T11:28:31.920Z,2.10
2023-01-07T11:30:37.813Z,1.92
2023-01-07T11:32:43.950Z,1.95
2023-01-07T11:34:59.808Z,1.20
2023-01-07T11:37:05.756Z,4.00
2023-01-07T11:39:21.468Z,1.75
2023-01-07T11:41:29.273Z,1.90
2023-01-07T11:46:19.358Z,2.70
2023-01-07T11:48:27.072Z,1.55
2023-01-07T11:50:40.139Z,1.67
2023-01-07T11:52:59.825Z,1.48
2023-01-07T11:55:06.130Z,2.13
2023-01-07T11:57:16.269Z,2.17
2023-01-07T11:59:32.669Z,1.65
2023-01-07T12:01:46.408Z,1.60
2023-01-07T12:04:16.694Z,3.50
2023-01-07T12:06:30.140Z,1.58
2023-01-07T12:08:36.475Z,2.33
2023-01-07T12:10:45.532Z,1.50
2023-01-07T12:12:50.618Z,2.05
2023-01-07T12:14:57.317Z,1.20
2023-01-07T12:17:16.797Z,2.37
2023-01-07T12:19:45.356Z,1.35
2023-01-07T12:22:07.361Z,2.22
2023-01-07T12:24:34.972Z,2.15
2023-01-07T12:26:50.329Z,1.85
2023-01-07T12:29:12.064Z,1.50
2023-01-07T12:31:38.201Z,1.85
2023-01-07T12:34:07.822Z,3.42
2023-01-07T12:36:23.051Z,3.17
2023-01-07T12:38:43.262Z,2.75
2023-01-07T12:40:53.800Z,2.25
2023-01-07T12:43:05.333Z,2.50
2023-01-07T12:45:22.266Z,2.30
2023-01-07T12:47:35.493Z,2.97
2023-01-07T12:49:48.591Z,1.55
2023-01-07T12:51:59.471Z,1.90
2023-01-07T12:54:15.161Z,2.00
2023-01-07T12:56:26.024Z,2.03
2023-01-07T12:58:46.498Z,2.53
2023-01-07T13:01:00.214Z,2.08
2023-01-07T13:03:20.850Z,1.92
2023-01-07T13:05:33.617Z,1.90
2023-01-07T13:07:48.235Z,2.80
2023-01-07T13:10:05.543Z,2.28
2023-01-07T13:12:40.582Z,1.65
2023-01-07T13:14:57.858Z,1.88
2023-01-07T13:17:17.177Z,3.63
2023-01-07T13:19:22.789Z,2.33
2023-01-07T13:21:28.211Z,2.33
2023-01-07T13:24:03.356Z,2.60
2023-01-07T13:26:32.139Z,1.45
2023-01-07T13:29:13.803Z,1.83
2023-01-07T13:32:00.766Z,2.40
2023-01-07T13:36:32.917Z,2.97
2023-01-07T13:39:05.344Z,1.88
2023-01-07T13:41:28.019Z,1.65
2023-01-07T13:44:02.977Z,2.63
2023-01-07T13:46:17.020Z,2.47
2023-01-07T13:48:27.945Z,1.90
2023-01-07T13:50:40.042Z,1.58
2023-01-07T13:52:46.320Z,1.45
2023-01-07T13:55:03.008Z,1.60
2023-01-07T13:57:44.691Z,1.73
2023-01-07T13:59:55.908Z,2.45
2023-01-07T14:02:26.157Z,3.35
2023-01-07T14:04:49.689Z,2.67
2023-01-07T14:06:55.691Z,1.58
2023-01-07T14:09:16.853Z,3.22
2023-01-07T14:11:25.413Z,2.67
2023-01-07T14:13:42.295Z,2.20
2023-01-07T14:16:11.341Z,1.80
2023-01-07T14:19:01.679Z,2.03
2023-01-07T14:21:29.242Z,2.47
2023-01-07T14:23:43.292Z,1.75
2023-01-07T14:26:08.160Z,2.17
2023-01-07T14:29:02.144Z,2.15
2023-01-07T14:31:08.988Z,2.10
2023-01-07T14:33:23.014Z,2.00
2023-01-07T14:35:38.292Z,3.05
2023-01-07T14:37:47.447Z,1.98
2023-01-07T14:39:52.737Z,2.58
2023-01-07T14:42:43.325Z,2.10
2023-01-07T14:44:53.198Z,1.95
2023-01-07T14:46:58.266Z,2.13
2023-01-07T14:49:58.352Z,3.50
2023-01-07T14:52:11.018Z,4.97
2023-01-07T14:54:47.437Z,2.85
2023-01-07T14:57:07.782Z,3.28
2023-01-07T14:59:38.264Z,3.92
2023-01-07T15:02:03.862Z,2.42
2023-01-07T15:04:47.578Z,2.28
2023-01-07T15:06:54.390Z,3.38
2023-01-07T15:09:21.337Z,1.88
2023-01-07T15:11:41.663Z,1.90
2023-01-07T15:14:09.232Z,1.65
2023-01-07T15:16:16.144Z,2.08
2023-01-07T15:18:23.914Z,2.13
2023-01-07T15:20:42.458Z,2.60
2023-01-07T15:23:09.695Z,1.45
2023-01-07T15:25:30.374Z,2.30
2023-01-07T15:27:47.938Z,5.00
2023-01-07T15:30:00.745Z,2.05
2023-01-07T15:32:17.572Z,2.70
2023-01-07T15:34:35.300Z,1.67
2023-01-07T15:38:52.955Z,3.05
2023-01-07T15:40:59.499Z,2.88
2023-01-07T15:43:06.289Z,3.70
2023-01-07T15:45:20.934Z,6.72
2023-01-07T15:47:41.137Z,2.53
2023-01-07T15:49:49.070Z,4.43
2023-01-07T15:54:01.970Z,3.70
2023-01-07T15:56:11.561Z,2.58
2023-01-07T15:58:20.363Z,2.03
2023-01-07T16:00:27.826Z,2.83
2023-01-07T16:02:38.943Z,1.95
2023-01-07T16:04:44.658Z,2.20
2023-01-07T16:06:52.405Z,1.73
2023-01-07T16:08:57.759Z,1.85
2023-01-07T16:11:06.132Z,1.92
2023-01-07T16:13:21.392Z,1.95
2023-01-07T16:15:30.945Z,2.10
2023-01-07T16:17:36.217Z,3.78
2023-01-07T16:19:41.557Z,2.10
2023-01-07T16:21:54.299Z,1.67
2023-01-07T16:24:00.319Z,1.80
2023-01-07T16:26:08.876Z,2.13
2023-01-07T16:28:21.817Z,2.10
2023-01-07T16:30:26.994Z,1.83
2023-01-07T16:32:32.090Z,2.65
2023-01-07T16:35:21.545Z,3.92
2023-01-07T16:37:31.573Z,2.58
2023-01-07T16:39:41.409Z,1.98
2023-01-07T16:41:46.659Z,1.73
2023-01-07T16:43:53.126Z,1.50
2023-01-07T16:46:18.977Z,2.17
2023-01-07T16:48:24.550Z,1.67
2023-01-07T16:50:40.928Z,1.40
2023-01-07T16:52:55.610Z,1.92
2023-01-07T16:55:00.883Z,1.70
2023-01-07T16:57:09.138Z,1.40
2023-01-07T17:01:34.027Z,2.80
2023-01-07T17:03:50.399Z,1.40
2023-01-07T17:06:06.338Z,2.85
2023-01-07T17:08:21.901Z,2.28
2023-01-07T17:10:31.023Z,2.35
2023-01-07T17:12:41.288Z,2.60
2023-01-07T17:14:53.022Z,3.20
2023-01-07T17:17:03.138Z,2.67
2023-01-07T17:19:27.945Z,3.22
2023-01-07T17:21:46.110Z,2.10
2023-01-07T17:23:53.705Z,2.53
2023-01-07T17:25:59.870Z,2.72
2023-01-07T17:28:16.642Z,3.88
2023-01-07T17:30:24.523Z,5.40
2023-01-07T17:34:34.806Z,1.63
2023-01-07T17:36:39.786Z,3.70
2023-01-07T17:38:44.985Z,1.80
2023-01-07T17:40:54.499Z,3.05
2023-01-07T17:43:12.016Z,3.90
2023-01-07T17:45:22.893Z,2.03
2023-01-07T17:47:27.859Z,2.03
2023-01-07T17:49:32.907Z,3.40
2023-01-07T17:51:41.951Z,3.85
2023-01-07T17:53:49.964Z,3.05
2023-01-07T17:55:57.942Z,2.15
2023-01-07T18:00:15.428Z,3.65
2023-01-07T18:02:23.340Z,2.47
2023-01-07T18:06:34.990Z,2.75
2023-01-07T18:08:39.886Z,3.42
2023-01-07T18:10:58.335Z,3.15
2023-01-07T18:13:05.827Z,3.17
2023-01-07T18:15:23.657Z,1.70
2023-01-07T18:17:29.533Z,2.45
2023-01-07T18:19:34.824Z,2.85
2023-01-07T18:21:39.884Z,4.07
2023-01-07T18:23:45.943Z,5.05
2023-01-07T18:25:51.030Z,3.35
2023-01-07T18:27:56.957Z,3.33
2023-01-07T18:30:04.507Z,4.32
2023-01-07T18:32:10.344Z,8.45
2023-01-07T18:34:18.059Z,11.07
2023-01-07T18:36:23.022Z,8.68
2023-01-07T18:38:28.633Z,8.60
2023-01-07T18:40:34.049Z,5.38
2023-01-07T18:44:43.893Z,6.57
2023-01-07T18:46:51.520Z,5.25
2023-01-07T18:51:02.308Z,3.95
2023-01-07T18:53:07.209Z,4.28
2023-01-07T18:55:17.762Z,7.00
2023-01-07T18:57:23.040Z,5.03
2023-01-07T18:59:28.242Z,6.10
2023-01-07T19:01:33.511Z,8.30
2023-01-07T19:03:41.509Z,4.93
2023-01-07T19:05:46.735Z,5.03
2023-01-07T19:07:52.888Z,4.53
2023-01-07T19:09:57.862Z,5.68
2023-01-07T19:12:03.244Z,5.75
2023-01-07T19:14:08.188Z,4.03
2023-01-07T19:16:15.651Z,4.18
2023-01-07T19:18:20.626Z,6.15
2023-01-07T19:20:28.226Z,5.57
2023-01-07T19:22:33.247Z,6.78
2023-01-07T19:24:38.221Z,6.65
2023-01-07T19:26:43.186Z,6.70
2023-01-07T19:28:48.541Z,4.95
2023-01-07T19:30:53.525Z,5.53
2023-01-07T19:32:58.651Z,5.15
2023-01-07T19:35:03.639Z,6.47
2023-01-07T19:37:11.435Z,8.23
2023-01-07T19:39:18.063Z,7.70
2023-01-07T19:41:24.267Z,6.82
2023-01-07T19:43:29.285Z,8.88
2023-01-07T19:45:35.222Z,9.88
2023-01-07T19:47:40.178Z,7.65
2023-01-07T19:49:45.390Z,6.88
2023-01-07T19:51:52.438Z,8.93
2023-01-07T19:54:00.307Z,9.68
2023-01-07T19:56:08.331Z,9.40
2023-01-07T19:58:13.339Z,10.10
2023-01-07T20:00:18.774Z,10.98
2023-01-07T20:02:24.084Z,9.82
2023-01-07T20:04:29.243Z,9.40
2023-01-07T20:06:38.815Z,8.07
2023-01-07T20:08:44.134Z,9.43
2023-01-07T20:11:01.560Z,8.73
2023-01-07T20:13:06.470Z,7.70
2023-01-07T20:15:13.285Z,5.45
2023-01-07T20:17:18.218Z,6.15
2023-01-07T20:19:23.792Z,7.20
2023-01-07T20:21:29.717Z,7.28
2023-01-07T20:23:36.702Z,8.18
2023-01-07T20:25:45.288Z,7.50
2023-01-07T20:27:53.240Z,8.85
2023-01-07T20:29:58.175Z,8.18
2023-01-07T20:32:07.388Z,8.35
2023-01-07T20:34:13.337Z,9.75
2023-01-07T20:36:21.116Z,8.38
2023-01-07T20:38:26.020Z,6.85
2023-01-07T20:40:31.357Z,8.30
2023-01-07T20:42:36.339Z,8.07
2023-01-07T20:44:43.833Z,6.80
2023-01-07T20:46:48.769Z,8.55
2023-01-07T20:48:54.453Z,10.10
2023-01-07T20:51:00.379Z,9.10
2023-01-07T20:53:05.335Z,7.63
2023-01-07T20:55:11.596Z,6.93
2023-01-07T20:57:16.548Z,8.38
2023-01-07T20:59:21.610Z,6.28
2023-01-07T21:01:29.727Z,7.47
2023-01-07T21:03:35.034Z,7.00
2023-01-07T21:05:40.873Z,7.68
2023-01-07T21:07:45.852Z,7.03
2023-01-07T21:09:50.883Z,6.72
2023-01-07T21:11:56.605Z,7.72
2023-01-07T21:14:02.366Z,11.75
2023-01-07T21:16:08.576Z,14.45
2023-01-07T21:18:16.188Z,10.80
2023-01-07T21:20:21.418Z,12.57
2023-01-07T21:22:26.721Z,10.57
2023-01-07T21:24:32.796Z,10.73
2023-01-07T21:26:37.966Z,7.65
2023-01-07T21:28:44.334Z,8.10
2023-01-07T21:30:50.124Z,7.35
2023-01-07T21:32:55.461Z,6.28
2023-01-07T21:35:03.165Z,6.10
2023-01-07T21:37:08.126Z,7.38
2023-01-07T21:39:15.698Z,6.05
2023-01-07T21:41:20.737Z,6.13
2023-01-07T21:43:25.746Z,8.15
2023-01-07T21:45:31.699Z,6.32
2023-01-07T21:47:36.724Z,6.20
2023-01-07T21:49:42.087Z,8.32
2023-01-07T21:51:51.481Z,6.72
2023-01-07T21:53:58.331Z,7.00
2023-01-07T21:56:09.510Z,6.32
2023-01-07T21:58:14.481Z,4.90
2023-01-07T22:00:20.394Z,6.05
2023-01-07T22:02:25.439Z,6.28
2023-01-07T22:04:30.676Z,6.68
2023-01-07T22:06:38.292Z,7.35
2023-01-07T22:08:45.865Z,6.88
2023-01-07T22:10:51.268Z,7.93
2023-01-07T22:12:56.248Z,7.38
2023-01-07T22:15:01.607Z,7.32
2023-01-07T22:17:06.717Z,7.93
2023-01-07T22:19:12.718Z,7.45
2023-01-07T22:21:19.070Z,7.72
2023-01-07T22:23:24.635Z,8.18
2023-01-07T22:25:32.619Z,6.30
2023-01-07T22:27:37.866Z,8.25
2023-01-07T22:29:44.422Z,8.88
2023-01-07T22:31:52.734Z,7.45
2023-01-07T22:33:57.983Z,6.70
2023-01-07T22:36:03.160Z,7.13
2023-01-07T22:38:08.651Z,6.15
2023-01-07T22:40:15.229Z,6.00
2023-01-07T22:42:27.326Z,8.55
2023-01-07T22:44:37.185Z,6.68
2023-01-07T22:46:44.447Z,7.05
2023-01-07T22:48:49.500Z,6.13
2023-01-07T22:50:58.957Z,8.25
2023-01-07T22:53:04.362Z,7.45
2023-01-07T22:55:11.000Z,6.68
2023-01-07T22:57:16.824Z,9.18
2023-01-07T22:59:24.395Z,7.60
2023-01-07T23:01:29.940Z,7.32
2023-01-07T23:03:35.315Z,8.73
2023-01-07T23:05:40.494Z,11.50
2023-01-07T23:07:45.678Z,16.23
2023-01-07T23:09:51.710Z,24.13
2023-01-07T23:11:59.535Z,25.70
2023-01-07T23:14:04.726Z,18.05
2023-01-07T23:16:12.483Z,8.82
2023-01-07T23:18:17.494Z,6.15
2023-01-07T23:20:23.195Z,8.20
2023-01-07T23:22:28.214Z,5.95
2023-01-07T23:24:33.614Z,4.93
2023-01-07T23:26:39.427Z,8.10
2023-01-07T23:28:45.334Z,5.35
2023-01-07T23:30:52.090Z,5.20
2023-01-07T23:33:00.165Z,4.35
2023-01-07T23:35:06.553Z,4.32
2023-01-07T23:37:14.591Z,3.97
2023-01-07T23:39:20.114Z,5.68
2023-01-07T23:41:28.228Z,5.75
2023-01-07T23:43:33.973Z,4.53
2023-01-07T23:45:39.010Z,5.10
2023-01-07T23:47:44.445Z,5.40
2023-01-07T23:49:52.044Z,4.97
2023-01-07T23:51:57.214Z,3.65
2023-01-07T23:54:02.668Z,4.00
2023-01-07T23:56:09.713Z,3.92
2023-01-07T23:58:15.232Z,3.75
